createdAt,value
2024-01-06T00:02:16.862Z,98713.19
2024-01-06T00:05:19.874Z,98714.09
2024-01-06T00:08:23.123Z,98718.41
2024-01-06T00:11:26.211Z,98718.13
2024-01-06T00:14:30.499Z,98718.13
2024-01-06T00:17:33.668Z,98718.13
2024-01-06T00:20:38.373Z,98716.91
2024-01-06T00:23:42.416Z,98720.19
2024-01-06T00:26:45.484Z,98717.84
2024-01-06T00:29:51.092Z,98717.09
2024-01-06T00:32:54.106Z,98715.28
2024-01-06T00:35:57.431Z,98723.44
2024-01-06T00:39:01.070Z,98714.84
2024-01-06T00:42:04.270Z,98722.19
2024-01-06T00:45:10.228Z,98726.31
2024-01-06T00:48:13.743Z,98736.91
2024-01-06T00:51:16.892Z,98746.97
2024-01-06T00:54:19.905Z,98745.94
2024-01-06T00:57:25.443Z,98741.56
2024-01-06T01:00:29.904Z,98753.44
2024-01-06T01:03:32.962Z,98757.03
2024-01-06T01:06:36.025Z,98755.56
2024-01-06T01:09:39.134Z,98757.38
2024-01-06T01:12:42.223Z,98764.38
2024-01-06T01:15:46.800Z,98775.16
2024-01-06T01:18:50.874Z,98786.13
2024-01-06T01:21:56.842Z,98781.91
2024-01-06T01:25:01.687Z,98787.31
2024-01-06T01:28:05.264Z,98787.31
2024-01-06T01:31:09.789Z,98780.44
2024-01-06T01:34:12.989Z,98784.69
2024-01-06T01:37:16.071Z,98779.34
2024-01-06T01:40:21.825Z,98773.94
2024-01-06T01:43:25.166Z,98783.16
2024-01-06T01:46:31.314Z,98780.81
2024-01-06T01:49:34.790Z,98784.47
2024-01-06T01:52:38.140Z,98794.94
2024-01-06T01:55:41.905Z,98790.63
2024-01-06T01:58:45.111Z,98803.00
2024-01-06T02:01:50.904Z,98801.97
2024-01-06T02:04:54.225Z,98793.91
2024-01-06T02:07:57.516Z,98804.16
2024-01-06T02:11:00.889Z,98799.84
2024-01-06T02:14:04.375Z,98803.06
2024-01-06T02:17:08.650Z,98816.25
2024-01-06T02:20:14.093Z,98822.34
2024-01-06T02:23:18.412Z,98815.41
2024-01-06T02:26:21.742Z,98809.47
2024-01-06T02:29:24.726Z,98809.47
2024-01-06T02:32:27.755Z,98815.41
2024-01-06T02:35:30.768Z,98816.69
2024-01-06T02:38:35.066Z,98825.03
2024-01-06T02:41:38.131Z,98835.53
2024-01-06T02:44:44.000Z,98846.44
2024-01-06T02:47:47.078Z,98838.91
2024-01-06T02:50:50.143Z,98842.50
2024-01-06T02:53:55.574Z,98849.25
2024-01-06T02:56:58.740Z,98847.41
2024-01-06T03:00:02.575Z,98850.91
2024-01-06T03:03:06.331Z,98853.00
2024-01-06T03:06:09.386Z,98846.53
2024-01-06T03:09:13.757Z,98847.25
2024-01-06T03:12:17.081Z,98853.28
2024-01-06T03:15:20.121Z,98860.69
2024-01-06T03:18:23.247Z,98868.28
2024-01-06T03:21:27.730Z,98864.78
2024-01-06T03:24:32.308Z,98866.28
2024-01-06T03:27:35.419Z,98866.91
2024-01-06T03:30:38.562Z,98861.53
2024-01-06T03:33:42.233Z,98864.47
2024-01-06T03:36:45.301Z,98871.13
2024-01-06T03:39:49.682Z,98873.78
2024-01-06T03:42:54.493Z,98886.84
2024-01-06T03:45:59.028Z,98881.28
2024-01-06T03:49:02.258Z,98879.72
2024-01-06T03:52:09.618Z,98881.09
2024-01-06T03:55:14.136Z,98884.47
2024-01-06T03:58:17.207Z,98882.03
2024-01-06T04:01:22.931Z,98893.25
2024-01-06T04:04:26.649Z,98889.50
2024-01-06T04:07:29.677Z,98898.22
2024-01-06T04:10:33.952Z,98896.84
2024-01-06T04:13:36.919Z,98908.34
2024-01-06T04:16:39.907Z,98907.63
2024-01-06T04:19:43.040Z,98916.03
2024-01-06T04:22:46.717Z,98913.66
2024-01-06T04:25:51.363Z,98922.06
2024-01-06T04:28:54.348Z,98928.09
2024-01-06T04:31:58.001Z,98930.56
2024-01-06T04:35:01.140Z,98932.31
2024-01-06T04:38:04.265Z,98940.75
2024-01-06T04:41:08.573Z,98942.91
2024-01-06T04:44:11.615Z,98943.81
2024-01-06T04:47:14.588Z,98944.56
2024-01-06T04:50:18.379Z,98952.06
2024-01-06T04:53:21.950Z,98949.69
2024-01-06T04:56:26.227Z,98956.78
2024-01-06T04:59:29.324Z,98963.41
2024-01-06T05:02:32.342Z,98972.81
2024-01-06T05:05:35.383Z,98977.69
2024-01-06T05:08:42.576Z,98968.16
2024-01-06T05:11:47.083Z,98965.50
2024-01-06T05:14:50.133Z,98965.50
2024-01-06T05:17:53.264Z,98980.97
2024-01-06T05:20:57.054Z,98966.34
2024-01-06T05:24:00.565Z,98969.75
2024-01-06T05:27:05.616Z,98978.25
2024-01-06T05:30:11.001Z,98979.22
2024-01-06T05:33:16.406Z,98976.59
2024-01-06T05:36:21.371Z,98986.19
2024-01-06T05:39:24.437Z,98990.28
2024-01-06T05:42:29.438Z,98992.28
2024-01-06T05:45:32.739Z,99000.53
2024-01-06T05:48:36.372Z,99000.47
2024-01-06T05:51:39.456Z,99002.84
2024-01-06T05:54:43.588Z,99016.66
2024-01-06T05:57:48.011Z,99016.09
2024-01-06T06:00:52.154Z,99023.03
2024-01-06T06:03:55.297Z,99024.84
2024-01-06T06:07:01.943Z,99021.22
2024-01-06T06:10:07.465Z,99035.44
2024-01-06T06:13:12.289Z,99038.75
2024-01-06T06:16:15.382Z,99048.97
2024-01-06T06:19:19.677Z,99048.81
2024-01-06T06:22:23.592Z,99060.91
2024-01-06T06:25:26.786Z,99067.09
2024-01-06T06:28:31.348Z,99067.72
2024-01-06T06:31:34.422Z,99076.91
2024-01-06T06:34:37.530Z,99081.19
2024-01-06T06:37:40.522Z,99077.91
2024-01-06T06:40:43.619Z,99088.97
2024-01-06T06:43:47.937Z,99098.56
2024-01-06T06:46:50.955Z,99100.78
2024-01-06T06:49:54.461Z,99112.66
2024-01-06T06:52:57.504Z,99118.06
2024-01-06T06:56:00.559Z,99122.44
2024-01-06T06:59:05.030Z,99132.09
2024-01-06T07:02:08.060Z,99129.28
2024-01-06T07:05:11.225Z,99145.47
2024-01-06T07:12:37.914Z,99163.31
2024-01-06T07:15:46.150Z,99170.09
2024-01-06T07:18:49.412Z,99172.16
2024-01-06T07:21:52.797Z,99173.22
2024-01-06T07:24:56.088Z,99179.16
2024-01-06T07:27:59.748Z,99190.00
2024-01-06T07:31:05.885Z,99195.34
2024-01-06T07:34:09.826Z,99202.88
2024-01-06T07:37:13.096Z,99212.28
2024-01-06T07:40:17.840Z,99214.66
2024-01-06T07:43:21.126Z,99230.66
2024-01-06T07:46:25.657Z,99222.97
2024-01-06T07:49:29.196Z,99237.00
2024-01-06T07:52:33.992Z,99239.22
2024-01-06T07:55:37.022Z,99240.88
2024-01-06T07:58:42.292Z,99242.84
2024-01-06T08:01:46.619Z,99249.94
2024-01-06T08:04:54.386Z,99253.06
2024-01-06T08:08:18.067Z,99265.28
2024-01-06T08:11:21.155Z,99279.06
2024-01-06T08:14:24.263Z,99275.81
2024-01-06T08:17:49.851Z,99281.69
2024-01-06T08:20:53.115Z,99284.50
2024-01-06T08:23:56.132Z,99287.19
2024-01-06T08:26:59.251Z,99284.63
2024-01-06T08:33:07.231Z,99297.19
2024-01-06T08:36:10.621Z,99316.31
2024-01-06T08:39:14.052Z,99305.69
2024-01-06T08:42:17.275Z,99309.97
2024-01-06T08:45:20.545Z,99316.88
2024-01-06T08:48:25.122Z,99328.03
2024-01-06T08:51:28.502Z,99332.78
2024-01-06T08:54:31.529Z,99334.75
2024-01-06T08:57:34.696Z,99337.97
2024-01-06T09:00:37.823Z,99340.69
2024-01-06T09:03:42.442Z,99351.06
2024-01-06T09:06:46.210Z,99360.63
2024-01-06T09:09:49.346Z,99361.22
2024-01-06T09:12:52.899Z,99363.94
2024-01-06T09:15:57.118Z,99380.78
2024-01-06T09:19:02.979Z,99379.28
2024-01-06T09:22:08.480Z,99382.81
2024-01-06T09:25:11.475Z,99390.50
2024-01-06T09:28:14.876Z,99394.09
2024-01-06T09:31:18.326Z,99398.22
2024-01-06T09:34:22.773Z,99398.38
2024-01-06T09:37:25.762Z,99409.72
2024-01-06T09:40:28.749Z,99412.00
2024-01-06T09:43:31.896Z,99415.50
2024-01-06T09:46:44.717Z,99418.91
2024-01-06T09:49:52.215Z,99412.66
2024-01-06T09:53:04.979Z,99414.97
2024-01-06T09:56:09.679Z,99421.53
2024-01-06T09:59:12.863Z,99432.75
2024-01-06T10:02:18.578Z,99432.66
2024-01-06T10:05:23.374Z,99433.13
2024-01-06T10:08:28.490Z,99438.31
2024-01-06T10:11:31.516Z,99441.91
2024-01-06T10:14:34.544Z,99449.25
2024-01-06T10:17:40.574Z,99452.72
2024-01-06T10:20:46.977Z,99460.22
2024-01-06T10:23:50.434Z,99447.72
2024-01-06T10:26:53.599Z,99445.09
2024-01-06T10:29:56.709Z,99439.09
2024-01-06T10:32:59.805Z,99448.16
2024-01-06T10:36:06.138Z,99453.22
2024-01-06T10:39:10.451Z,99452.00
2024-01-06T10:42:18.186Z,99462.34
2024-01-06T10:45:21.231Z,99462.25
2024-01-06T10:48:26.653Z,99466.63
2024-01-06T10:51:32.274Z,99455.41
2024-01-06T10:54:37.733Z,99464.06
2024-01-06T10:57:42.227Z,99462.13
2024-01-06T11:00:45.417Z,99465.84
2024-01-06T11:03:50.131Z,99466.63
2024-01-06T11:06:55.315Z,99470.06
2024-01-06T11:10:11.621Z,99477.06
2024-01-06T11:13:21.460Z,99477.13
2024-01-06T11:16:37.709Z,99470.81
2024-01-06T11:19:47.112Z,99470.47
2024-01-06T11:22:52.744Z,99474.63
2024-01-06T11:25:56.705Z,99474.84
2024-01-06T11:29:02.357Z,99488.72
2024-01-06T11:32:30.695Z,99475.94
2024-01-06T11:35:33.897Z,99485.41
2024-01-06T11:38:41.048Z,99481.06
2024-01-06T11:41:51.243Z,99483.53
2024-01-06T11:44:54.722Z,99479.94
2024-01-06T11:48:00.006Z,99480.06
2024-01-06T11:51:06.242Z,99485.34
2024-01-06T11:54:13.651Z,99482.72
2024-01-06T11:57:16.827Z,99481.53
2024-01-06T12:00:20.752Z,99489.91
2024-01-06T12:03:24.418Z,99482.44
2024-01-06T12:06:27.531Z,99491.00
2024-01-06T12:09:31.946Z,99490.94
2024-01-06T12:12:34.979Z,99497.84
2024-01-06T12:15:40.451Z,99498.53
2024-01-06T12:18:44.090Z,99497.66
2024-01-06T12:21:47.284Z,99503.59
2024-01-06T12:24:53.118Z,99501.25
2024-01-06T12:27:56.197Z,99526.31
2024-01-06T12:30:59.342Z,99519.72
2024-01-06T12:34:02.553Z,99525.50
2024-01-06T12:37:05.836Z,99534.78
2024-01-06T12:40:13.952Z,99545.34
2024-01-06T12:43:17.344Z,99545.91
2024-01-06T12:46:20.393Z,99548.75
2024-01-06T12:49:23.841Z,99552.69
2024-01-06T12:52:26.931Z,99545.44
2024-01-06T12:55:31.388Z,99566.50
2024-01-06T12:58:35.366Z,99564.97
2024-01-06T13:01:38.660Z,99571.75
2024-01-06T13:04:42.020Z,99576.72
2024-01-06T13:07:45.075Z,99581.91
2024-01-06T13:10:49.421Z,99588.19
2024-01-06T13:13:52.573Z,99584.75
2024-01-06T13:16:55.926Z,99593.25
2024-01-06T13:19:59.205Z,99605.06
2024-01-06T13:23:02.360Z,99616.38
2024-01-06T13:26:06.733Z,99619.84
2024-01-06T13:29:09.696Z,99624.97
2024-01-06T13:32:14.545Z,99635.25
2024-01-06T13:35:17.690Z,99636.28
2024-01-06T13:38:20.728Z,99639.56
2024-01-06T13:41:25.265Z,99633.72
2024-01-06T13:44:28.277Z,99645.53
2024-01-06T13:47:32.284Z,99656.19
2024-01-06T13:50:35.364Z,99663.66
2024-01-06T13:53:39.434Z,99672.91
2024-01-06T13:56:43.731Z,99673.38
2024-01-06T13:59:47.714Z,99681.34
2024-01-06T14:02:50.892Z,99683.03
2024-01-06T14:05:54.719Z,99694.09
2024-01-06T14:08:57.825Z,99680.97
2024-01-06T14:12:02.182Z,99700.78
2024-01-06T14:15:07.290Z,99709.63
2024-01-06T14:18:11.959Z,99715.44
2024-01-06T14:21:16.390Z,99723.94
2024-01-06T14:24:24.474Z,99731.91
2024-01-06T14:27:30.911Z,99739.47
2024-01-06T14:30:34.183Z,99744.66
2024-01-06T14:33:37.507Z,99747.97
2024-01-06T14:36:41.469Z,99755.09
2024-01-06T14:39:44.513Z,99754.03
2024-01-06T14:42:50.253Z,99769.31
2024-01-06T14:45:53.342Z,99773.66
2024-01-06T14:48:56.957Z,99777.75
2024-01-06T14:52:00.001Z,99788.00
2024-01-06T14:55:03.447Z,99795.06
2024-01-06T14:58:09.635Z,99790.53
2024-01-06T15:01:13.754Z,99803.31
2024-01-06T15:04:19.550Z,99806.13
2024-01-06T15:07:22.672Z,99819.56
2024-01-06T15:10:25.644Z,99828.13
2024-01-06T15:13:30.007Z,99826.41
2024-01-06T15:16:33.192Z,99834.78
2024-01-06T15:19:36.935Z,99833.84
2024-01-06T15:22:41.433Z,99835.50
2024-01-06T15:25:44.666Z,99844.06
2024-01-06T15:28:49.026Z,99855.38
2024-01-06T15:31:53.620Z,99862.91
2024-01-06T15:34:56.882Z,99869.81
2024-01-06T15:38:00.063Z,99884.16
2024-01-06T15:41:05.657Z,99886.66
2024-01-06T15:44:10.710Z,99887.25
2024-01-06T15:47:14.564Z,99899.50
2024-01-06T15:50:17.708Z,99909.00
2024-01-06T15:53:22.947Z,99907.34
2024-01-06T15:56:25.949Z,99917.56
2024-01-06T15:59:30.884Z,99926.84
2024-01-06T16:02:34.045Z,99932.69
2024-01-06T16:05:37.176Z,99932.03
2024-01-06T16:08:40.252Z,99938.03
2024-01-06T16:11:43.448Z,99952.53
2024-01-06T16:14:47.799Z,99959.47
2024-01-06T16:17:51.188Z,99973.09
2024-01-06T16:20:55.575Z,99978.13
2024-01-06T16:23:58.946Z,99979.91
2024-01-06T16:27:01.922Z,99990.13
2024-01-06T16:30:08.301Z,99998.44
2024-01-06T16:33:11.951Z,100006.78
2024-01-06T16:36:15.027Z,100012.72
2024-01-06T16:39:18.522Z,100028.22
2024-01-06T16:42:21.821Z,100041.94
2024-01-06T16:45:26.364Z,100039.38
2024-01-06T16:48:29.511Z,100054.84
2024-01-06T16:51:32.842Z,100068.63
2024-01-06T16:54:36.040Z,100070.06
2024-01-06T16:57:39.273Z,100081.25
2024-01-06T17:00:43.731Z,100094.09
2024-01-06T17:03:47.073Z,100102.66
2024-01-06T17:06:50.177Z,100111.19
2024-01-06T17:09:53.243Z,100113.06
2024-01-06T17:12:56.324Z,100123.28
2024-01-06T17:16:00.689Z,100123.31
2024-01-06T17:19:04.068Z,100131.84
2024-01-06T17:22:07.577Z,100146.53
2024-01-06T17:25:15.903Z,100160.16
2024-01-06T17:28:19.535Z,100173.72
2024-01-06T17:31:24.605Z,100183.16
2024-01-06T17:34:27.760Z,100185.78
2024-01-06T17:37:30.989Z,100188.31
2024-01-06T17:40:34.026Z,100196.81
2024-01-06T17:43:37.047Z,100206.91
2024-01-06T17:46:41.642Z,100219.75
2024-01-06T17:49:44.814Z,100226.44
2024-01-06T17:52:47.862Z,100238.53
2024-01-06T17:55:51.450Z,100252.19
2024-01-06T17:59:00.989Z,100265.84
2024-01-06T18:02:05.609Z,100272.72
2024-01-06T18:05:09.380Z,100284.47
2024-01-06T18:08:13.530Z,100289.84
2024-01-06T18:11:17.961Z,100298.38
2024-01-06T18:14:21.037Z,100302.59
2024-01-06T18:17:25.447Z,100317.97
2024-01-06T18:20:28.715Z,100325.50
2024-01-06T18:23:32.093Z,100337.75
2024-01-06T18:26:35.112Z,100351.59
2024-01-06T18:29:39.515Z,100356.69
2024-01-06T18:32:43.988Z,100364.22
2024-01-06T18:35:47.162Z,100376.22
2024-01-06T18:38:50.181Z,100384.69
2024-01-06T18:41:56.156Z,100394.16
2024-01-06T18:44:59.375Z,100400.84
2024-01-06T18:48:04.341Z,100411.91
2024-01-06T18:51:07.467Z,100417.91
2024-01-06T18:54:16.466Z,100432.47
2024-01-06T18:57:22.747Z,100436.75
2024-01-06T19:00:25.810Z,100435.69
2024-01-06T19:03:30.192Z,100442.41
2024-01-06T19:06:34.172Z,100448.28
2024-01-06T19:09:37.345Z,100458.81
2024-01-06T19:12:40.478Z,100469.16
2024-01-06T19:15:43.538Z,100475.88
2024-01-06T19:18:48.404Z,100488.78
2024-01-06T19:21:51.503Z,100491.41
2024-01-06T19:24:55.741Z,100503.38
2024-01-06T19:27:59.546Z,100507.56
2024-01-06T19:31:03.197Z,100516.97
2024-01-06T19:34:08.032Z,100527.09
2024-01-06T19:37:11.237Z,100527.84
2024-01-06T19:40:16.715Z,100538.06
2024-01-06T19:43:19.698Z,100544.97
2024-01-06T19:46:22.754Z,100554.38
2024-01-06T19:49:27.175Z,100556.84
2024-01-06T19:52:30.252Z,100568.91
2024-01-06T19:55:34.119Z,100568.97
2024-01-06T19:58:37.770Z,100580.91
2024-01-06T20:01:40.867Z,100584.25
2024-01-06T20:04:45.988Z,100590.31
2024-01-06T20:07:49.659Z,100600.59
2024-01-06T20:10:55.216Z,100606.59
2024-01-06T20:14:00.610Z,100616.97
2024-01-06T20:17:04.423Z,100623.84
2024-01-06T20:20:11.249Z,100634.03
2024-01-06T20:23:14.371Z,100643.34
2024-01-06T20:26:18.969Z,100643.63
2024-01-06T20:29:21.964Z,100648.72
2024-01-06T20:32:25.677Z,100649.63
2024-01-06T20:35:30.308Z,100661.84
2024-01-06T20:38:33.621Z,100662.88
2024-01-06T20:41:36.697Z,100661.22
2024-01-06T20:44:39.856Z,100667.16
2024-01-06T20:47:43.042Z,100661.19
2024-01-06T20:50:47.585Z,100660.31
2024-01-06T20:53:51.454Z,100663.72
2024-01-06T20:56:54.860Z,100666.19
2024-01-06T20:59:58.540Z,100662.78
2024-01-06T21:03:01.997Z,100663.56
2024-01-06T21:06:06.803Z,100667.75
2024-01-06T21:09:10.268Z,100671.97
2024-01-06T21:12:13.741Z,100674.56
2024-01-06T21:15:16.887Z,100694.91
2024-01-06T21:18:20.130Z,100696.59
2024-01-06T21:21:24.726Z,100694.03
2024-01-06T21:24:27.843Z,100707.59
2024-01-06T21:27:30.873Z,100709.28
2024-01-06T21:30:34.099Z,100721.25
2024-01-06T21:33:37.395Z,100729.72
2024-01-06T21:36:44.392Z,100728.88
2024-01-06T21:39:47.486Z,100745.13
2024-01-06T21:42:51.578Z,100752.72
2024-01-06T21:45:54.896Z,100750.19
2024-01-06T21:48:58.067Z,100762.97
2024-01-06T21:52:05.548Z,100765.50
2024-01-06T21:55:10.233Z,100776.56
2024-01-06T21:58:13.526Z,100791.91
2024-01-06T22:01:17.692Z,100795.31
2024-01-06T22:04:21.767Z,100810.66
2024-01-06T22:07:27.182Z,100813.16
2024-01-06T22:10:33.678Z,100818.13
2024-01-06T22:13:37.758Z,100831.94
2024-01-06T22:16:40.909Z,100837.91
2024-01-06T22:19:44.862Z,100839.63
2024-01-06T22:22:49.775Z,100847.34
2024-01-06T22:25:52.763Z,100857.56
2024-01-06T22:28:55.797Z,100861.75
2024-01-06T22:31:59.043Z,100866.06
2024-01-06T22:35:02.114Z,100876.28
2024-01-06T22:38:06.577Z,100894.25
2024-01-06T22:41:09.897Z,100897.63
2024-01-06T22:44:12.967Z,100900.13
2024-01-06T22:47:16.025Z,100905.16
2024-01-06T22:50:19.064Z,100911.22
2024-01-06T22:53:23.932Z,100916.34
2024-01-06T22:56:27.231Z,100922.25
2024-01-06T22:59:30.311Z,100924.91
2024-01-06T23:02:33.280Z,100925.78
2024-01-06T23:05:36.480Z,100935.13
2024-01-06T23:08:40.892Z,100942.84
2024-01-06T23:11:44.902Z,100956.38
2024-01-06T23:14:47.912Z,100946.16
2024-01-06T23:17:52.258Z,100953.09
2024-01-06T23:20:55.857Z,100956.50
2024-01-06T23:24:00.196Z,100963.31
2024-01-06T23:27:04.037Z,100965.84
2024-01-06T23:30:09.141Z,100965.09
2024-01-06T23:33:12.237Z,100968.47
2024-01-06T23:36:15.722Z,100976.06
2024-01-06T23:39:20.000Z,100981.22
2024-01-06T23:42:23.458Z,100984.59
2024-01-06T23:45:26.793Z,100985.50
2024-01-06T23:48:30.527Z,100987.22
2024-01-06T23:51:33.679Z,100982.13
2024-01-06T23:54:41.549Z,100996.53
2024-01-06T23:57:44.604Z,101000.16
